createdAt,value
2022-10-01T00:02:07.497Z,15.58
2022-10-01T00:04:37.800Z,15.57
2022-10-01T00:07:09.859Z,15.51
2022-10-01T00:09:37.062Z,15.42
2022-10-01T00:12:04.377Z,15.39
2022-10-01T00:14:31.834Z,15.36
2022-10-01T00:16:59.339Z,15.36
2022-10-01T00:19:26.889Z,15.37
2022-10-01T00:21:53.948Z,15.40
2022-10-01T00:24:21.164Z,15.42
2022-10-01T00:26:48.300Z,15.42
2022-10-01T00:29:15.554Z,15.36
2022-10-01T00:31:42.927Z,15.30
2022-10-01T00:34:12.845Z,15.25
2022-10-01T00:36:40.606Z,15.23
2022-10-01T00:39:10.488Z,15.15
2022-10-01T00:41:38.164Z,15.07
2022-10-01T00:44:32.571Z,15.00
2022-10-01T00:47:27.791Z,14.95
2022-10-01T00:50:31.201Z,14.91
2022-10-01T00:53:02.305Z,14.84
2022-10-01T00:55:37.364Z,14.73
2022-10-01T00:58:06.503Z,14.71
2022-10-01T01:00:35.980Z,14.62
2022-10-01T01:03:05.836Z,14.59
2022-10-01T01:05:33.015Z,14.57
2022-10-01T01:08:01.109Z,14.53
2022-10-01T01:11:02.853Z,14.51
2022-10-01T01:13:33.386Z,14.57
2022-10-01T01:16:23.585Z,14.60
2022-10-01T01:19:08.132Z,14.62
2022-10-01T01:21:45.215Z,14.64
2022-10-01T01:24:27.889Z,14.64
2022-10-01T01:27:32.530Z,14.56
2022-10-01T01:30:14.531Z,14.51
2022-10-01T01:33:02.683Z,14.51
2022-10-01T01:35:52.281Z,14.46
2022-10-01T01:38:27.536Z,14.44
2022-10-01T01:41:00.160Z,14.45
2022-10-01T01:43:36.679Z,14.44
2022-10-01T01:46:07.472Z,14.47
2022-10-01T01:48:37.259Z,14.47
2022-10-01T01:51:27.913Z,14.44
2022-10-01T01:53:55.121Z,14.44
2022-10-01T01:56:23.437Z,14.44
2022-10-01T01:58:53.047Z,14.44
2022-10-01T02:01:37.139Z,14.43
2022-10-01T02:04:43.465Z,14.34
2022-10-01T02:07:36.181Z,14.30
2022-10-01T02:10:15.259Z,14.24
2022-10-01T02:13:14.614Z,14.21
2022-10-01T02:16:00.854Z,14.07
2022-10-01T02:18:48.357Z,13.94
2022-10-01T02:21:34.747Z,13.91
2022-10-01T02:24:26.080Z,13.94
2022-10-01T02:26:56.579Z,13.93
2022-10-01T02:29:24.876Z,13.93
2022-10-01T02:31:56.359Z,13.95
2022-10-01T02:34:28.861Z,13.89
2022-10-01T02:37:00.052Z,13.88
2022-10-01T02:39:30.297Z,13.84
2022-10-01T02:41:59.119Z,13.81
2022-10-01T02:44:37.429Z,13.85
2022-10-01T02:47:37.272Z,13.85
2022-10-01T02:50:07.492Z,13.86
2022-10-01T02:52:43.698Z,13.85
2022-10-01T02:55:30.234Z,13.83
2022-10-01T02:57:57.940Z,13.81
2022-10-01T03:00:26.668Z,13.72
2022-10-01T03:02:54.513Z,13.72
2022-10-01T03:05:21.932Z,13.63
2022-10-01T03:07:49.704Z,13.62
2022-10-01T03:10:17.045Z,13.59
2022-10-01T03:12:45.981Z,13.62
2022-10-01T03:15:16.325Z,13.60
2022-10-01T03:17:43.747Z,13.61
2022-10-01T03:20:11.836Z,13.60
2022-10-01T03:22:39.091Z,13.56
2022-10-01T03:25:06.865Z,13.54
2022-10-01T03:27:34.081Z,13.52
2022-10-01T03:30:01.360Z,13.52
2022-10-01T03:32:28.511Z,13.55
2022-10-01T03:34:55.648Z,13.57
2022-10-01T03:37:22.841Z,13.56
2022-10-01T03:39:50.047Z,13.58
2022-10-01T03:42:17.167Z,13.55
2022-10-01T03:44:44.338Z,13.54
2022-10-01T03:47:21.658Z,13.50
2022-10-01T03:49:49.026Z,13.49
2022-10-01T03:52:16.282Z,13.47
2022-10-01T03:54:43.781Z,13.43
2022-10-01T03:57:11.073Z,13.44
2022-10-01T03:59:38.548Z,13.47
2022-10-01T04:02:07.814Z,13.52
2022-10-01T04:04:35.246Z,13.57
2022-10-01T04:07:02.518Z,13.60
2022-10-01T04:09:29.769Z,13.64
2022-10-01T04:11:57.467Z,13.65
2022-10-01T04:14:24.826Z,13.65
2022-10-01T04:16:52.759Z,13.67
2022-10-01T04:19:20.054Z,13.71
2022-10-01T04:21:47.479Z,13.76
2022-10-01T04:24:17.819Z,13.80
2022-10-01T04:26:45.949Z,13.86
2022-10-01T04:29:13.397Z,13.85
2022-10-01T04:31:41.264Z,13.85
2022-10-01T04:34:09.832Z,13.86
2022-10-01T04:36:37.139Z,13.81
2022-10-01T04:39:04.492Z,13.81
2022-10-01T04:41:32.263Z,13.84
2022-10-01T04:44:02.230Z,13.82
2022-10-01T04:46:29.882Z,13.93
2022-10-01T04:48:57.536Z,14.01
2022-10-01T04:51:24.792Z,14.08
2022-10-01T04:53:53.588Z,14.16
2022-10-01T04:56:24.376Z,14.24
2022-10-01T04:58:51.572Z,14.31
2022-10-01T05:01:19.164Z,14.39
2022-10-01T05:03:47.067Z,14.49
2022-10-01T05:06:14.364Z,14.61
2022-10-01T05:08:41.677Z,14.74
2022-10-01T05:11:10.496Z,14.88
2022-10-01T05:13:38.635Z,14.94
2022-10-01T05:16:06.193Z,15.00
2022-10-01T05:18:33.799Z,14.95
2022-10-01T05:21:06.781Z,15.05
2022-10-01T05:23:34.058Z,15.09
2022-10-01T05:26:03.774Z,15.11
2022-10-01T05:28:32.281Z,15.09
2022-10-01T05:31:01.803Z,15.08
2022-10-01T05:33:30.773Z,14.94
2022-10-01T05:35:58.482Z,15.04
2022-10-01T05:38:26.161Z,15.19
2022-10-01T05:40:53.272Z,15.37
2022-10-01T05:43:20.531Z,15.43
2022-10-01T05:45:49.313Z,15.45
2022-10-01T05:48:17.272Z,15.54
2022-10-01T05:50:44.496Z,15.60
2022-10-01T05:53:13.489Z,15.63
2022-10-01T05:55:40.694Z,15.68
2022-10-01T05:58:10.676Z,15.81
2022-10-01T06:00:40.156Z,15.90
2022-10-01T06:03:12.054Z,16.02
2022-10-01T06:05:39.460Z,16.16
2022-10-01T06:08:09.296Z,16.23
2022-10-01T06:10:37.674Z,16.28
2022-10-01T06:13:06.109Z,16.42
2022-10-01T06:15:38.588Z,16.58
2022-10-01T06:18:10.866Z,16.75
2022-10-01T06:20:39.369Z,16.93
2022-10-01T06:23:11.779Z,17.08
2022-10-01T06:25:43.144Z,17.22
2022-10-01T06:28:13.963Z,17.36
2022-10-01T06:30:42.344Z,17.49
2022-10-01T06:33:15.988Z,17.66
2022-10-01T06:35:49.760Z,17.82
2022-10-01T06:38:19.718Z,17.96
2022-10-01T06:40:58.941Z,18.03
2022-10-01T06:43:29.790Z,18.13
2022-10-01T06:46:00.636Z,18.23
2022-10-01T06:48:30.870Z,18.36
2022-10-01T06:50:58.911Z,18.48
2022-10-01T06:53:27.968Z,18.58
2022-10-01T06:55:55.892Z,18.70
2022-10-01T06:58:27.057Z,18.83
2022-10-01T07:01:00.893Z,18.98
2022-10-01T07:03:29.024Z,19.10
2022-10-01T07:06:05.192Z,19.20
2022-10-01T07:08:32.812Z,19.31
2022-10-01T07:11:02.325Z,19.40
2022-10-01T07:13:30.792Z,19.50
2022-10-01T07:15:58.118Z,19.58
2022-10-01T07:18:25.578Z,19.67
2022-10-01T07:20:52.848Z,19.76
2022-10-01T07:23:20.069Z,19.84
2022-10-01T07:25:47.319Z,19.94
2022-10-01T07:28:19.634Z,20.05
2022-10-01T07:30:56.847Z,20.16
2022-10-01T07:33:24.282Z,20.30
2022-10-01T07:35:51.581Z,20.45
2022-10-01T07:38:18.948Z,20.58
2022-10-01T07:40:58.394Z,20.70
2022-10-01T07:43:25.682Z,20.82
2022-10-01T07:45:54.638Z,20.99
2022-10-01T07:48:21.926Z,21.14
2022-10-01T07:50:49.804Z,21.29
2022-10-01T07:53:17.866Z,21.43
2022-10-01T07:55:45.547Z,21.53
2022-10-01T07:58:13.210Z,21.75
2022-10-01T08:00:40.578Z,21.92
2022-10-01T08:03:11.637Z,22.09
2022-10-01T08:05:42.826Z,22.25
2022-10-01T08:08:10.035Z,22.42
2022-10-01T08:10:38.286Z,22.55
2022-10-01T08:13:14.194Z,22.63
2022-10-01T08:15:49.995Z,22.70
2022-10-01T08:18:17.711Z,22.77
2022-10-01T08:20:45.964Z,22.87
2022-10-01T08:23:16.446Z,22.94
2022-10-01T08:26:01.100Z,22.97
2022-10-01T08:28:29.342Z,23.00
2022-10-01T08:30:56.944Z,23.00
2022-10-01T08:33:24.231Z,23.03
2022-10-01T08:35:51.404Z,23.08
2022-10-01T08:38:19.294Z,23.09
2022-10-01T08:40:49.989Z,23.10
2022-10-01T08:43:42.206Z,23.12
2022-10-01T08:46:20.740Z,23.12
2022-10-01T08:49:12.097Z,23.20
2022-10-01T08:52:12.856Z,23.29
2022-10-01T08:54:56.510Z,23.40
2022-10-01T08:57:30.505Z,23.46
2022-10-01T09:00:01.256Z,23.58
2022-10-01T09:02:42.313Z,23.68
2022-10-01T09:05:47.996Z,23.79
2022-10-01T09:08:56.466Z,23.93
2022-10-01T09:12:04.251Z,24.00
2022-10-01T09:14:37.499Z,24.15
2022-10-01T09:17:29.885Z,24.23
2022-10-01T09:20:22.022Z,24.29
2022-10-01T09:23:30.823Z,24.34
2022-10-01T09:26:02.014Z,24.35
2022-10-01T09:28:34.819Z,24.37
2022-10-01T09:31:06.299Z,24.41
2022-10-01T09:33:38.050Z,24.46
2022-10-01T09:36:11.192Z,24.50
2022-10-01T09:38:41.952Z,24.58
2022-10-01T09:41:12.400Z,24.67
2022-10-01T09:43:43.602Z,24.68
2022-10-01T09:46:16.975Z,24.73
2022-10-01T09:48:59.265Z,24.82
2022-10-01T09:51:40.435Z,24.92
2022-10-01T09:54:36.428Z,24.95
2022-10-01T09:57:14.480Z,25.01
2022-10-01T10:00:01.151Z,25.09
2022-10-01T10:02:41.409Z,25.18
2022-10-01T10:05:29.353Z,25.31
2022-10-01T10:08:10.327Z,25.41
2022-10-01T10:10:40.260Z,25.47
2022-10-01T10:13:10.665Z,25.59
2022-10-01T10:15:51.126Z,25.69
2022-10-01T10:18:34.893Z,25.77
2022-10-01T10:21:10.319Z,25.86
2022-10-01T10:23:51.800Z,25.94
2022-10-01T10:26:28.117Z,26.00
2022-10-01T10:28:58.429Z,25.98
2022-10-01T10:31:50.509Z,25.95
2022-10-01T10:34:22.739Z,25.99
2022-10-01T10:36:57.265Z,26.00
2022-10-01T10:39:40.359Z,26.05
2022-10-01T10:42:08.109Z,26.11
2022-10-01T10:44:41.842Z,26.21
2022-10-01T10:47:18.840Z,26.29
2022-10-01T10:50:02.229Z,26.33
2022-10-01T10:52:36.516Z,26.41
2022-10-01T10:55:26.585Z,26.42
2022-10-01T10:57:57.528Z,26.45
2022-10-01T11:00:26.304Z,26.37
2022-10-01T11:03:01.238Z,26.35
2022-10-01T11:05:39.457Z,26.29
2022-10-01T11:08:19.965Z,26.32
2022-10-01T11:11:31.960Z,26.31
2022-10-01T11:14:23.606Z,26.31
2022-10-01T11:17:12.632Z,26.38
2022-10-01T11:19:48.893Z,26.50
2022-10-01T11:23:00.388Z,26.49
2022-10-01T11:26:06.235Z,26.49
2022-10-01T11:29:01.118Z,26.54
2022-10-01T11:32:10.143Z,26.49
2022-10-01T11:34:53.774Z,26.56
2022-10-01T11:37:47.273Z,26.64
2022-10-01T11:41:02.580Z,26.64
2022-10-01T11:43:59.216Z,26.56
2022-10-01T11:46:54.628Z,26.61
2022-10-01T11:49:54.811Z,26.67
2022-10-01T11:52:46.677Z,26.76
2022-10-01T11:56:06.758Z,26.83
2022-10-01T11:58:57.806Z,26.91
2022-10-01T12:02:20.994Z,26.94
2022-10-01T12:05:17.374Z,27.04
2022-10-01T12:07:59.462Z,27.05
2022-10-01T12:11:00.767Z,27.00
2022-10-01T12:13:48.658Z,26.99
2022-10-01T12:16:44.868Z,26.90
2022-10-01T12:19:42.511Z,26.93
2022-10-01T12:22:24.345Z,26.94
2022-10-01T12:24:53.415Z,26.95
2022-10-01T12:27:53.591Z,26.93
2022-10-01T12:30:24.511Z,27.00
2022-10-01T12:33:04.362Z,27.09
2022-10-01T12:35:53.911Z,27.20
2022-10-01T12:39:02.051Z,27.25
2022-10-01T12:42:07.495Z,27.21
2022-10-01T12:45:12.172Z,27.18
2022-10-01T12:48:20.804Z,27.18
2022-10-01T12:50:50.991Z,27.10
2022-10-01T12:53:29.305Z,27.00
2022-10-01T12:56:31.689Z,27.04
2022-10-01T12:59:42.384Z,27.02
2022-10-01T13:03:06.688Z,27.03
2022-10-01T13:05:45.637Z,27.00
2022-10-01T13:08:18.632Z,27.00
2022-10-01T13:11:37.013Z,26.96
2022-10-01T13:14:06.987Z,26.95
2022-10-01T13:16:49.752Z,26.96
2022-10-01T13:19:54.617Z,26.98
2022-10-01T13:22:40.978Z,26.95
2022-10-01T13:25:40.977Z,26.94
2022-10-01T13:28:26.199Z,26.91
2022-10-01T13:31:18.703Z,26.88
2022-10-01T13:33:57.479Z,26.84
2022-10-01T13:36:35.928Z,26.84
2022-10-01T13:39:03.591Z,26.83
2022-10-01T13:41:34.506Z,26.80
2022-10-01T13:44:08.040Z,26.76
2022-10-01T13:46:53.020Z,26.71
2022-10-01T13:49:29.542Z,26.64
2022-10-01T13:51:58.391Z,26.51
2022-10-01T13:54:39.432Z,26.48
2022-10-01T13:57:26.638Z,26.39
2022-10-01T14:00:23.063Z,26.33
2022-10-01T14:03:23.089Z,26.25
2022-10-01T14:05:57.426Z,26.16
2022-10-01T14:08:37.744Z,26.06
2022-10-01T14:11:34.709Z,25.98
2022-10-01T14:14:52.199Z,25.91
2022-10-01T14:17:30.292Z,25.83
2022-10-01T14:20:00.289Z,25.76
2022-10-01T14:23:12.206Z,25.70
2022-10-01T14:26:27.974Z,25.62
2022-10-01T14:29:50.503Z,25.54
2022-10-01T14:32:30.452Z,25.44
2022-10-01T14:35:27.222Z,25.36
2022-10-01T14:38:05.254Z,25.29
2022-10-01T14:40:42.910Z,25.24
2022-10-01T14:43:26.021Z,25.18
2022-10-01T14:46:12.403Z,25.10
2022-10-01T14:48:42.354Z,25.05
2022-10-01T14:51:59.721Z,25.00
2022-10-01T14:54:29.580Z,24.94
2022-10-01T14:56:57.015Z,24.89
2022-10-01T14:59:35.369Z,24.84
2022-10-01T15:02:17.587Z,24.76
2022-10-01T15:04:50.819Z,24.68
2022-10-01T15:07:18.921Z,24.60
2022-10-01T15:09:47.332Z,24.52
2022-10-01T15:12:17.499Z,24.43
2022-10-01T15:14:46.544Z,24.35
2022-10-01T15:17:24.982Z,24.28
2022-10-01T15:19:56.217Z,24.19
2022-10-01T15:22:29.651Z,24.08
2022-10-01T15:25:01.744Z,23.97
2022-10-01T15:27:29.198Z,23.84
2022-10-01T15:30:01.097Z,23.74
2022-10-01T15:32:28.744Z,23.61
2022-10-01T15:35:01.177Z,23.50
2022-10-01T15:37:35.621Z,23.38
2022-10-01T15:40:07.174Z,23.27
2022-10-01T15:42:36.187Z,23.15
2022-10-01T15:45:06.400Z,23.02
2022-10-01T15:47:48.861Z,22.89
2022-10-01T15:50:22.587Z,22.76
2022-10-01T15:53:21.501Z,22.65
2022-10-01T15:55:53.775Z,22.53
2022-10-01T15:58:31.850Z,22.44
2022-10-01T16:01:22.049Z,22.33
2022-10-01T16:04:05.542Z,22.23
2022-10-01T16:06:51.482Z,22.12
2022-10-01T16:09:21.385Z,22.02
2022-10-01T16:12:03.641Z,21.89
2022-10-01T16:14:43.320Z,21.80
2022-10-01T16:17:16.636Z,21.71
2022-10-01T16:19:56.374Z,21.65
2022-10-01T16:22:32.017Z,21.62
2022-10-01T16:25:06.926Z,21.60
2022-10-01T16:27:47.166Z,21.56
2022-10-01T16:30:26.880Z,21.53
2022-10-01T16:32:56.781Z,21.49
2022-10-01T16:35:35.008Z,21.45
2022-10-01T16:38:07.870Z,21.40
2022-10-01T16:40:42.376Z,21.35
2022-10-01T16:43:23.857Z,21.26
2022-10-01T16:45:51.259Z,21.17
2022-10-01T16:48:24.204Z,21.11
2022-10-01T16:50:58.379Z,21.04
2022-10-01T16:53:26.319Z,20.95
2022-10-01T16:55:55.572Z,20.85
2022-10-01T16:58:22.818Z,20.79
2022-10-01T17:00:50.967Z,20.74
2022-10-01T17:03:21.952Z,20.70
2022-10-01T17:05:49.548Z,20.65
2022-10-01T17:08:16.748Z,20.59
2022-10-01T17:10:50.286Z,20.58
2022-10-01T17:13:17.454Z,20.54
2022-10-01T17:15:46.963Z,20.48
2022-10-01T17:18:14.138Z,20.44
2022-10-01T17:20:41.652Z,20.39
2022-10-01T17:23:14.920Z,20.36
2022-10-01T17:25:42.806Z,20.34
2022-10-01T17:28:17.725Z,20.29
2022-10-01T17:30:47.540Z,20.26
2022-10-01T17:33:20.450Z,20.23
2022-10-01T17:35:55.102Z,20.19
2022-10-01T17:38:22.930Z,20.15
2022-10-01T17:40:56.189Z,20.15
2022-10-01T17:43:24.766Z,20.16
2022-10-01T17:45:58.348Z,20.11
2022-10-01T17:48:27.690Z,20.22
2022-10-01T17:51:09.175Z,20.26
2022-10-01T17:53:42.206Z,20.18
2022-10-01T17:56:17.158Z,20.09
2022-10-01T17:58:46.075Z,20.04
2022-10-01T18:01:19.207Z,19.92
2022-10-01T18:03:46.512Z,19.80
2022-10-01T18:06:14.766Z,19.72
2022-10-01T18:08:54.726Z,19.71
2022-10-01T18:11:27.095Z,19.65
2022-10-01T18:13:54.763Z,19.59
2022-10-01T18:16:23.301Z,19.54
2022-10-01T18:21:46.948Z,19.43
2022-10-01T18:24:15.623Z,19.41
2022-10-01T18:26:45.101Z,19.41
2022-10-01T18:29:19.753Z,19.40
2022-10-01T18:31:51.419Z,19.38
2022-10-01T18:34:32.725Z,19.38
2022-10-01T18:37:07.541Z,19.29
2022-10-01T18:39:47.642Z,19.26
2022-10-01T18:42:25.867Z,19.22
2022-10-01T18:45:25.536Z,19.21
2022-10-01T18:48:32.203Z,19.17
2022-10-01T18:51:23.855Z,19.19
2022-10-01T18:54:37.118Z,19.21
2022-10-01T18:57:29.275Z,19.22
2022-10-01T19:00:21.345Z,19.24
2022-10-01T19:03:00.673Z,19.23
2022-10-01T19:05:45.391Z,19.21
2022-10-01T19:08:37.304Z,19.16
2022-10-01T19:11:35.771Z,19.15
2022-10-01T19:14:38.698Z,19.12
2022-10-01T19:17:46.250Z,19.09
2022-10-01T19:20:13.379Z,19.06
2022-10-01T19:23:12.246Z,19.04
2022-10-01T19:25:51.904Z,19.00
2022-10-01T19:29:09.039Z,18.94
2022-10-01T19:31:39.960Z,18.89
2022-10-01T19:34:26.068Z,18.89
2022-10-01T19:37:01.671Z,18.85
2022-10-01T19:39:37.277Z,18.88
2022-10-01T19:42:25.594Z,18.87
2022-10-01T19:45:05.008Z,18.85
2022-10-01T19:47:56.965Z,18.81
2022-10-01T19:50:33.367Z,18.72
2022-10-01T19:53:03.218Z,18.67
2022-10-01T19:55:38.812Z,18.57
2022-10-01T19:58:21.012Z,18.54
2022-10-01T20:00:58.597Z,18.48
2022-10-01T20:03:57.699Z,18.44
2022-10-01T20:06:32.120Z,18.42
2022-10-01T20:09:18.211Z,18.39
2022-10-01T20:12:00.811Z,18.39
2022-10-01T20:15:08.931Z,18.34
2022-10-01T20:18:14.016Z,18.31
2022-10-01T20:20:50.644Z,18.25
2022-10-01T20:23:38.242Z,18.23
2022-10-01T20:26:16.684Z,18.19
2022-10-01T20:29:32.171Z,18.16
2022-10-01T20:32:25.417Z,18.17
2022-10-01T20:35:27.777Z,18.20
2022-10-01T20:38:21.111Z,18.21
2022-10-01T20:40:57.524Z,18.25
2022-10-01T20:43:36.768Z,18.28
2022-10-01T20:46:23.137Z,18.31
2022-10-01T20:49:01.053Z,18.32
2022-10-01T20:51:50.870Z,18.35
2022-10-01T20:54:22.584Z,18.39
2022-10-01T20:56:59.165Z,18.44
2022-10-01T20:59:52.077Z,18.44
2022-10-01T21:02:43.205Z,18.45
2022-10-01T21:05:32.466Z,18.43
2022-10-01T21:08:06.327Z,18.38
2022-10-01T21:10:42.905Z,18.38
2022-10-01T21:13:30.289Z,18.39
2022-10-01T21:16:18.967Z,18.41
2022-10-01T21:19:19.559Z,18.44
2022-10-01T21:22:04.586Z,18.46
2022-10-01T21:25:09.156Z,18.46
2022-10-01T21:27:55.134Z,18.44
2022-10-01T21:30:22.735Z,18.43
2022-10-01T21:33:15.522Z,18.40
2022-10-01T21:36:09.307Z,18.38
2022-10-01T21:39:05.180Z,18.36
2022-10-01T21:41:47.802Z,18.34
2022-10-01T21:44:48.766Z,18.34
2022-10-01T21:47:57.785Z,18.34
2022-10-01T21:50:36.799Z,18.36
2022-10-01T21:53:11.650Z,18.41
2022-10-01T21:56:11.356Z,18.44
2022-10-01T21:59:18.996Z,18.49
2022-10-01T22:02:27.408Z,18.50
2022-10-01T22:05:22.287Z,18.48
2022-10-01T22:08:18.305Z,18.45
2022-10-01T22:10:52.807Z,18.41
2022-10-01T22:13:29.994Z,18.39
2022-10-01T22:16:12.076Z,18.34
2022-10-01T22:18:57.179Z,18.31
2022-10-01T22:21:30.382Z,18.30
2022-10-01T22:24:18.196Z,18.34
2022-10-01T22:26:54.260Z,18.40
2022-10-01T22:29:28.338Z,18.47
2022-10-01T22:32:02.282Z,18.52
2022-10-01T22:34:43.945Z,18.52
2022-10-01T22:37:22.277Z,18.49
2022-10-01T22:39:58.197Z,18.43
2022-10-01T22:42:33.582Z,18.32
2022-10-01T22:45:12.206Z,18.23
2022-10-01T22:48:05.473Z,18.14
2022-10-01T22:50:50.146Z,18.05
2022-10-01T22:53:41.239Z,17.96
2022-10-01T22:56:13.948Z,17.88
2022-10-01T22:59:13.747Z,17.82
2022-10-01T23:01:52.826Z,17.82
2022-10-01T23:04:44.598Z,17.82
2022-10-01T23:07:22.654Z,17.82
2022-10-01T23:10:20.177Z,17.76
2022-10-01T23:13:37.454Z,17.68
2022-10-01T23:16:28.383Z,17.56
2022-10-01T23:19:31.276Z,17.53
2022-10-01T23:22:31.831Z,17.59
2022-10-01T23:25:28.610Z,17.63
2022-10-01T23:28:48.397Z,17.66
2022-10-01T23:31:37.646Z,17.68
2022-10-01T23:34:35.198Z,17.70
2022-10-01T23:37:34.572Z,17.71
2022-10-01T23:40:08.977Z,17.74
2022-10-01T23:42:47.224Z,17.74
2022-10-01T23:45:59.748Z,17.76
2022-10-01T23:48:39.248Z,17.76
2022-10-01T23:51:27.828Z,17.72
2022-10-01T23:54:34.785Z,17.71
2022-10-01T23:57:13.599Z,17.70
